sensor_id;sensor_type;location;lat;lon;timestamp;P1;durP1;ratioP1;P2;durP2;ratioP2
30605;SDS011;17371;51.328;3.860;2022-09-09T00:00:11;15.43;;;4.72;;
30605;SDS011;17371;51.328;3.860;2022-09-09T00:02:38;12.20;;;4.30;;
30605;SDS011;17371;51.328;3.860;2022-09-09T00:05:09;11.60;;;4.22;;
30605;SDS011;17371;51.328;3.860;2022-09-09T00:07:41;13.23;;;4.80;;
30605;SDS011;17371;51.328;3.860;2022-09-09T00:10:13;11.13;;;4.40;;
30605;SDS011;17371;51.328;3.860;2022-09-09T00:12:42;18.08;;;5.18;;
30605;SDS011;17371;51.328;3.860;2022-09-09T00:15:15;10.07;;;4.40;;
30605;SDS011;17371;51.328;3.860;2022-09-09T00:17:46;14.80;;;4.97;;
30605;SDS011;17371;51.328;3.860;2022-09-09T00:20:14;16.02;;;5.38;;
30605;SDS011;17371;51.328;3.860;2022-09-09T00:22:42;14.65;;;4.75;;
30605;SDS011;17371;51.328;3.860;2022-09-09T00:25:12;13.07;;;4.80;;
30605;SDS011;17371;51.328;3.860;2022-09-09T00:27:40;17.80;;;4.57;;
30605;SDS011;17371;51.328;3.860;2022-09-09T00:30:14;15.95;;;5.30;;
30605;SDS011;17371;51.328;3.860;2022-09-09T00:32:41;19.40;;;5.80;;
30605;SDS011;17371;51.328;3.860;2022-09-09T00:35:12;16.58;;;5.50;;
30605;SDS011;17371;51.328;3.860;2022-09-09T00:37:41;17.77;;;7.00;;
30605;SDS011;17371;51.328;3.860;2022-09-09T00:40:08;19.93;;;7.80;;
30605;SDS011;17371;51.328;3.860;2022-09-09T00:42:44;23.38;;;7.22;;
30605;SDS011;17371;51.328;3.860;2022-09-09T00:45:15;23.45;;;6.78;;
30605;SDS011;17371;51.328;3.860;2022-09-09T00:47:50;16.50;;;6.18;;
30605;SDS011;17371;51.328;3.860;2022-09-09T00:50:29;19.67;;;5.93;;
30605;SDS011;17371;51.328;3.860;2022-09-09T00:53:03;16.30;;;5.72;;
30605;SDS011;17371;51.328;3.860;2022-09-09T00:55:38;19.70;;;6.50;;
30605;SDS011;17371;51.328;3.860;2022-09-09T00:58:06;20.10;;;6.13;;
30605;SDS011;17371;51.328;3.860;2022-09-09T01:00:35;20.67;;;6.45;;
30605;SDS011;17371;51.328;3.860;2022-09-09T01:03:11;11.47;;;4.07;;
30605;SDS011;17371;51.328;3.860;2022-09-09T01:05:44;11.40;;;4.22;;
30605;SDS011;17371;51.328;3.860;2022-09-09T01:08:13;15.15;;;4.20;;
30605;SDS011;17371;51.328;3.860;2022-09-09T01:10:49;9.52;;;4.07;;
30605;SDS011;17371;51.328;3.860;2022-09-09T01:13:17;13.93;;;4.05;;
30605;SDS011;17371;51.328;3.860;2022-09-09T01:15:48;13.77;;;3.53;;
30605;SDS011;17371;51.328;3.860;2022-09-09T01:18:15;9.43;;;3.53;;
30605;SDS011;17371;51.328;3.860;2022-09-09T01:20:44;11.25;;;3.40;;
30605;SDS011;17371;51.328;3.860;2022-09-09T01:26:16;9.52;;;3.30;;
30605;SDS011;17371;51.328;3.860;2022-09-09T01:28:44;9.33;;;3.27;;
30605;SDS011;17371;51.328;3.860;2022-09-09T01:31:11;7.65;;;3.28;;
30605;SDS011;17371;51.328;3.860;2022-09-09T01:33:41;14.90;;;3.75;;
30605;SDS011;17371;51.328;3.860;2022-09-09T01:36:09;11.50;;;3.38;;
30605;SDS011;17371;51.328;3.860;2022-09-09T01:38:38;9.07;;;3.33;;
30605;SDS011;17371;51.328;3.860;2022-09-09T01:41:03;11.50;;;3.27;;
30605;SDS011;17371;51.328;3.860;2022-09-09T01:43:30;11.88;;;3.50;;
30605;SDS011;17371;51.328;3.860;2022-09-09T01:45:56;14.68;;;3.63;;
30605;SDS011;17371;51.328;3.860;2022-09-09T01:48:24;13.70;;;3.72;;
30605;SDS011;17371;51.328;3.860;2022-09-09T01:50:50;16.73;;;3.78;;
30605;SDS011;17371;51.328;3.860;2022-09-09T01:53:16;11.17;;;3.40;;
30605;SDS011;17371;51.328;3.860;2022-09-09T01:55:45;11.82;;;3.38;;
30605;SDS011;17371;51.328;3.860;2022-09-09T01:58:19;11.82;;;3.80;;
30605;SDS011;17371;51.328;3.860;2022-09-09T02:00:52;10.88;;;3.65;;
30605;SDS011;17371;51.328;3.860;2022-09-09T02:03:21;12.90;;;3.67;;
30605;SDS011;17371;51.328;3.860;2022-09-09T02:05:52;13.43;;;3.97;;
30605;SDS011;17371;51.328;3.860;2022-09-09T02:08:23;8.05;;;3.70;;
30605;SDS011;17371;51.328;3.860;2022-09-09T02:10:53;13.15;;;3.55;;
30605;SDS011;17371;51.328;3.860;2022-09-09T02:13:20;11.02;;;3.70;;
30605;SDS011;17371;51.328;3.860;2022-09-09T02:15:47;15.43;;;3.42;;
30605;SDS011;17371;51.328;3.860;2022-09-09T02:18:18;12.03;;;3.90;;
30605;SDS011;17371;51.328;3.860;2022-09-09T02:20:46;11.10;;;4.22;;
30605;SDS011;17371;51.328;3.860;2022-09-09T02:23:11;12.40;;;4.28;;
30605;SDS011;17371;51.328;3.860;2022-09-09T02:25:37;17.10;;;4.55;;
30605;SDS011;17371;51.328;3.860;2022-09-09T02:28:06;17.23;;;4.80;;
30605;SDS011;17371;51.328;3.860;2022-09-09T02:30:33;12.77;;;4.75;;
30605;SDS011;17371;51.328;3.860;2022-09-09T02:33:01;11.55;;;4.28;;
30605;SDS011;17371;51.328;3.860;2022-09-09T02:35:28;13.88;;;3.97;;
30605;SDS011;17371;51.328;3.860;2022-09-09T02:37:56;12.93;;;4.20;;
30605;SDS011;17371;51.328;3.860;2022-09-09T02:40:24;16.40;;;4.22;;
30605;SDS011;17371;51.328;3.860;2022-09-09T02:42:49;16.10;;;4.20;;
30605;SDS011;17371;51.328;3.860;2022-09-09T02:45:15;17.77;;;4.88;;
30605;SDS011;17371;51.328;3.860;2022-09-09T02:47:43;20.15;;;5.05;;
30605;SDS011;17371;51.328;3.860;2022-09-09T02:50:15;21.60;;;6.43;;
30605;SDS011;17371;51.328;3.860;2022-09-09T02:52:45;20.90;;;6.82;;
30605;SDS011;17371;51.328;3.860;2022-09-09T02:55:17;49.28;;;12.88;;
30605;SDS011;17371;51.328;3.860;2022-09-09T02:57:45;54.28;;;16.48;;
30605;SDS011;17371;51.328;3.860;2022-09-09T03:00:12;67.50;;;18.08;;
30605;SDS011;17371;51.328;3.860;2022-09-09T03:02:37;73.00;;;19.70;;
30605;SDS011;17371;51.328;3.860;2022-09-09T03:05:03;65.13;;;17.63;;
30605;SDS011;17371;51.328;3.860;2022-09-09T03:07:30;62.40;;;18.17;;
30605;SDS011;17371;51.328;3.860;2022-09-09T03:09:56;55.58;;;16.20;;
30605;SDS011;17371;51.328;3.860;2022-09-09T03:12:21;47.97;;;15.10;;
30605;SDS011;17371;51.328;3.860;2022-09-09T03:14:47;43.23;;;13.57;;
30605;SDS011;17371;51.328;3.860;2022-09-09T03:17:12;29.90;;;10.67;;
30605;SDS011;17371;51.328;3.860;2022-09-09T03:19:37;50.28;;;11.32;;
30605;SDS011;17371;51.328;3.860;2022-09-09T03:22:03;27.20;;;9.50;;
30605;SDS011;17371;51.328;3.860;2022-09-09T03:24:30;32.43;;;8.90;;
30605;SDS011;17371;51.328;3.860;2022-09-09T03:26:55;34.35;;;8.77;;
30605;SDS011;17371;51.328;3.860;2022-09-09T03:29:21;26.20;;;8.50;;
30605;SDS011;17371;51.328;3.860;2022-09-09T03:31:46;22.10;;;7.63;;
30605;SDS011;17371;51.328;3.860;2022-09-09T03:34:12;20.80;;;6.23;;
30605;SDS011;17371;51.328;3.860;2022-09-09T03:36:37;18.17;;;5.77;;
30605;SDS011;17371;51.328;3.860;2022-09-09T03:39:02;12.00;;;4.13;;
30605;SDS011;17371;51.328;3.860;2022-09-09T03:41:30;15.00;;;3.75;;
30605;SDS011;17371;51.328;3.860;2022-09-09T03:43:55;15.20;;;3.80;;
30605;SDS011;17371;51.328;3.860;2022-09-09T03:46:22;15.85;;;3.70;;
30605;SDS011;17371;51.328;3.860;2022-09-09T03:48:48;17.23;;;3.65;;
30605;SDS011;17371;51.328;3.860;2022-09-09T03:51:14;14.67;;;3.50;;
30605;SDS011;17371;51.328;3.860;2022-09-09T03:53:39;14.77;;;3.07;;
30605;SDS011;17371;51.328;3.860;2022-09-09T03:56:05;10.57;;;3.00;;
30605;SDS011;17371;51.328;3.860;2022-09-09T03:58:32;13.60;;;3.77;;
30605;SDS011;17371;51.328;3.860;2022-09-09T04:00:58;11.57;;;3.58;;
30605;SDS011;17371;51.328;3.860;2022-09-09T04:03:25;19.52;;;4.00;;
30605;SDS011;17371;51.328;3.860;2022-09-09T04:05:51;20.10;;;4.20;;
30605;SDS011;17371;51.328;3.860;2022-09-09T04:08:16;16.90;;;4.30;;
30605;SDS011;17371;51.328;3.860;2022-09-09T04:10:41;14.33;;;4.10;;
30605;SDS011;17371;51.328;3.860;2022-09-09T04:13:07;14.63;;;3.87;;
30605;SDS011;17371;51.328;3.860;2022-09-09T04:15:34;12.57;;;4.20;;
30605;SDS011;17371;51.328;3.860;2022-09-09T04:17:59;16.63;;;4.13;;
30605;SDS011;17371;51.328;3.860;2022-09-09T04:20:24;19.17;;;4.67;;
30605;SDS011;17371;51.328;3.860;2022-09-09T04:22:50;17.35;;;4.30;;
30605;SDS011;17371;51.328;3.860;2022-09-09T04:25:15;17.70;;;5.10;;
30605;SDS011;17371;51.328;3.860;2022-09-09T04:27:41;26.77;;;6.43;;
30605;SDS011;17371;51.328;3.860;2022-09-09T04:30:07;22.03;;;5.97;;
30605;SDS011;17371;51.328;3.860;2022-09-09T04:32:35;18.00;;;6.18;;
30605;SDS011;17371;51.328;3.860;2022-09-09T04:35:01;21.98;;;7.25;;
30605;SDS011;17371;51.328;3.860;2022-09-09T04:37:26;34.55;;;11.38;;
30605;SDS011;17371;51.328;3.860;2022-09-09T04:39:52;36.55;;;10.27;;
30605;SDS011;17371;51.328;3.860;2022-09-09T04:42:17;25.63;;;9.00;;
30605;SDS011;17371;51.328;3.860;2022-09-09T04:44:43;35.30;;;10.97;;
30605;SDS011;17371;51.328;3.860;2022-09-09T04:47:08;31.73;;;9.67;;
30605;SDS011;17371;51.328;3.860;2022-09-09T04:49:35;35.60;;;12.43;;
30605;SDS011;17371;51.328;3.860;2022-09-09T04:52:00;35.20;;;11.48;;
30605;SDS011;17371;51.328;3.860;2022-09-09T04:54:26;32.80;;;10.43;;
30605;SDS011;17371;51.328;3.860;2022-09-09T04:56:51;45.33;;;14.53;;
30605;SDS011;17371;51.328;3.860;2022-09-09T04:59:16;41.27;;;14.00;;
30605;SDS011;17371;51.328;3.860;2022-09-09T05:01:42;43.63;;;13.63;;
30605;SDS011;17371;51.328;3.860;2022-09-09T05:04:07;41.50;;;13.60;;
30605;SDS011;17371;51.328;3.860;2022-09-09T05:06:34;39.80;;;13.00;;
30605;SDS011;17371;51.328;3.860;2022-09-09T05:08:59;48.45;;;15.00;;
30605;SDS011;17371;51.328;3.860;2022-09-09T05:11:25;41.53;;;14.43;;
30605;SDS011;17371;51.328;3.860;2022-09-09T05:13:52;31.23;;;10.02;;
30605;SDS011;17371;51.328;3.860;2022-09-09T05:16:18;42.33;;;11.35;;
30605;SDS011;17371;51.328;3.860;2022-09-09T05:18:44;37.17;;;11.65;;
30605;SDS011;17371;51.328;3.860;2022-09-09T05:21:10;39.70;;;11.83;;
30605;SDS011;17371;51.328;3.860;2022-09-09T05:23:37;30.05;;;10.80;;
30605;SDS011;17371;51.328;3.860;2022-09-09T05:26:03;33.70;;;10.43;;
30605;SDS011;17371;51.328;3.860;2022-09-09T05:28:29;29.08;;;8.45;;
30605;SDS011;17371;51.328;3.860;2022-09-09T05:30:55;23.13;;;7.23;;
30605;SDS011;17371;51.328;3.860;2022-09-09T05:33:24;16.13;;;6.53;;
30605;SDS011;17371;51.328;3.860;2022-09-09T05:35:54;23.42;;;6.72;;
30605;SDS011;17371;51.328;3.860;2022-09-09T05:38:20;22.15;;;6.90;;
30605;SDS011;17371;51.328;3.860;2022-09-09T05:40:48;29.50;;;7.67;;
30605;SDS011;17371;51.328;3.860;2022-09-09T05:43:13;26.13;;;8.15;;
30605;SDS011;17371;51.328;3.860;2022-09-09T05:45:39;27.30;;;9.55;;
30605;SDS011;17371;51.328;3.860;2022-09-09T05:48:04;31.60;;;10.80;;
30605;SDS011;17371;51.328;3.860;2022-09-09T05:50:29;35.37;;;11.73;;
30605;SDS011;17371;51.328;3.860;2022-09-09T05:52:55;30.97;;;12.33;;
30605;SDS011;17371;51.328;3.860;2022-09-09T05:55:20;41.27;;;13.30;;
30605;SDS011;17371;51.328;3.860;2022-09-09T05:57:49;37.20;;;14.37;;
30605;SDS011;17371;51.328;3.860;2022-09-09T06:00:14;34.90;;;11.85;;
30605;SDS011;17371;51.328;3.860;2022-09-09T06:02:40;40.00;;;14.10;;
30605;SDS011;17371;51.328;3.860;2022-09-09T06:05:06;42.40;;;15.80;;
30605;SDS011;17371;51.328;3.860;2022-09-09T06:07:31;39.65;;;15.98;;
30605;SDS011;17371;51.328;3.860;2022-09-09T06:09:57;32.00;;;12.77;;
30605;SDS011;17371;51.328;3.860;2022-09-09T06:12:22;33.43;;;12.57;;
30605;SDS011;17371;51.328;3.860;2022-09-09T06:14:49;33.23;;;12.07;;
30605;SDS011;17371;51.328;3.860;2022-09-09T06:17:14;29.90;;;11.15;;
30605;SDS011;17371;51.328;3.860;2022-09-09T06:19:40;28.57;;;10.83;;
30605;SDS011;17371;51.328;3.860;2022-09-09T06:22:05;35.37;;;13.17;;
30605;SDS011;17371;51.328;3.860;2022-09-09T06:24:30;28.17;;;10.40;;
30605;SDS011;17371;51.328;3.860;2022-09-09T06:26:56;23.53;;;9.73;;
30605;SDS011;17371;51.328;3.860;2022-09-09T06:29:21;26.80;;;7.85;;
30605;SDS011;17371;51.328;3.860;2022-09-09T06:31:48;26.25;;;8.43;;
30605;SDS011;17371;51.328;3.860;2022-09-09T06:34:13;21.05;;;7.68;;
30605;SDS011;17371;51.328;3.860;2022-09-09T06:36:39;28.52;;;9.75;;
30605;SDS011;17371;51.328;3.860;2022-09-09T06:39:04;26.80;;;8.33;;
30605;SDS011;17371;51.328;3.860;2022-09-09T06:41:31;25.42;;;9.55;;
30605;SDS011;17371;51.328;3.860;2022-09-09T06:43:57;31.30;;;11.48;;
30605;SDS011;17371;51.328;3.860;2022-09-09T06:46:23;26.30;;;9.17;;
30605;SDS011;17371;51.328;3.860;2022-09-09T06:48:51;21.88;;;7.45;;
30605;SDS011;17371;51.328;3.860;2022-09-09T06:51:17;24.73;;;8.70;;
30605;SDS011;17371;51.328;3.860;2022-09-09T06:53:43;25.75;;;10.50;;
30605;SDS011;17371;51.328;3.860;2022-09-09T06:56:17;28.40;;;9.53;;
30605;SDS011;17371;51.328;3.860;2022-09-09T06:58:45;29.00;;;10.25;;
30605;SDS011;17371;51.328;3.860;2022-09-09T07:01:11;29.45;;;9.05;;
30605;SDS011;17371;51.328;3.860;2022-09-09T07:03:38;18.75;;;7.70;;
30605;SDS011;17371;51.328;3.860;2022-09-09T07:06:06;23.98;;;8.88;;
30605;SDS011;17371;51.328;3.860;2022-09-09T07:08:32;26.25;;;10.45;;
30605;SDS011;17371;51.328;3.860;2022-09-09T07:11:01;31.55;;;12.20;;
30605;SDS011;17371;51.328;3.860;2022-09-09T07:13:27;28.80;;;10.95;;
30605;SDS011;17371;51.328;3.860;2022-09-09T07:15:53;30.40;;;10.90;;
30605;SDS011;17371;51.328;3.860;2022-09-09T07:18:18;26.98;;;12.18;;
30605;SDS011;17371;51.328;3.860;2022-09-09T07:20:52;30.80;;;12.27;;
30605;SDS011;17371;51.328;3.860;2022-09-09T07:23:19;30.05;;;9.75;;
30605;SDS011;17371;51.328;3.860;2022-09-09T07:25:44;24.70;;;10.38;;
30605;SDS011;17371;51.328;3.860;2022-09-09T07:28:09;29.33;;;10.53;;
30605;SDS011;17371;51.328;3.860;2022-09-09T07:30:35;25.50;;;9.27;;
30605;SDS011;17371;51.328;3.860;2022-09-09T07:33:00;24.43;;;8.83;;
30605;SDS011;17371;51.328;3.860;2022-09-09T07:35:26;25.97;;;8.30;;
30605;SDS011;17371;51.328;3.860;2022-09-09T07:37:51;23.85;;;8.10;;
30605;SDS011;17371;51.328;3.860;2022-09-09T07:40:18;25.43;;;11.60;;
30605;SDS011;17371;51.328;3.860;2022-09-09T07:42:44;23.88;;;10.00;;
30605;SDS011;17371;51.328;3.860;2022-09-09T07:45:09;22.80;;;7.80;;
30605;SDS011;17371;51.328;3.860;2022-09-09T07:47:34;22.40;;;7.60;;
30605;SDS011;17371;51.328;3.860;2022-09-09T07:50:00;21.20;;;8.03;;
30605;SDS011;17371;51.328;3.860;2022-09-09T07:52:25;23.95;;;7.55;;
30605;SDS011;17371;51.328;3.860;2022-09-09T07:54:50;22.73;;;7.73;;
30605;SDS011;17371;51.328;3.860;2022-09-09T07:57:17;20.87;;;8.30;;
30605;SDS011;17371;51.328;3.860;2022-09-09T07:59:42;25.10;;;8.80;;
30605;SDS011;17371;51.328;3.860;2022-09-09T08:02:08;28.80;;;10.10;;
30605;SDS011;17371;51.328;3.860;2022-09-09T08:04:34;21.50;;;7.60;;
30605;SDS011;17371;51.328;3.860;2022-09-09T08:07:00;22.77;;;8.25;;
30605;SDS011;17371;51.328;3.860;2022-09-09T08:09:26;21.80;;;7.90;;
30605;SDS011;17371;51.328;3.860;2022-09-09T08:11:52;21.75;;;7.40;;
30605;SDS011;17371;51.328;3.860;2022-09-09T08:14:19;14.73;;;6.60;;
30605;SDS011;17371;51.328;3.860;2022-09-09T08:16:45;16.20;;;6.22;;
30605;SDS011;17371;51.328;3.860;2022-09-09T08:19:11;15.82;;;5.28;;
30605;SDS011;17371;51.328;3.860;2022-09-09T08:21:38;15.52;;;3.47;;
30605;SDS011;17371;51.328;3.860;2022-09-09T08:24:04;7.13;;;2.65;;
30605;SDS011;17371;51.328;3.860;2022-09-09T08:26:31;6.00;;;2.45;;
30605;SDS011;17371;51.328;3.860;2022-09-09T08:28:59;10.60;;;2.40;;
30605;SDS011;17371;51.328;3.860;2022-09-09T08:31:26;5.63;;;2.40;;
30605;SDS011;17371;51.328;3.860;2022-09-09T08:33:53;10.65;;;2.30;;
30605;SDS011;17371;51.328;3.860;2022-09-09T08:36:20;7.68;;;2.30;;
30605;SDS011;17371;51.328;3.860;2022-09-09T08:38:47;8.02;;;2.22;;
30605;SDS011;17371;51.328;3.860;2022-09-09T08:41:25;8.02;;;2.17;;
30605;SDS011;17371;51.328;3.860;2022-09-09T08:44:18;11.50;;;2.80;;
30605;SDS011;17371;51.328;3.860;2022-09-09T08:46:51;6.90;;;2.13;;
30605;SDS011;17371;51.328;3.860;2022-09-09T08:49:24;10.23;;;2.27;;
30605;SDS011;17371;51.328;3.860;2022-09-09T08:52:03;10.45;;;2.20;;
30605;SDS011;17371;51.328;3.860;2022-09-09T08:54:34;11.80;;;2.40;;
30605;SDS011;17371;51.328;3.860;2022-09-09T08:56:59;11.73;;;2.30;;
30605;SDS011;17371;51.328;3.860;2022-09-09T08:59:25;12.07;;;2.07;;
30605;SDS011;17371;51.328;3.860;2022-09-09T09:01:53;7.70;;;2.13;;
30605;SDS011;17371;51.328;3.860;2022-09-09T09:04:34;9.88;;;1.80;;
30605;SDS011;17371;51.328;3.860;2022-09-09T09:07:06;9.68;;;2.20;;
30605;SDS011;17371;51.328;3.860;2022-09-09T09:09:37;7.53;;;1.90;;
30605;SDS011;17371;51.328;3.860;2022-09-09T09:12:15;8.43;;;2.00;;
30605;SDS011;17371;51.328;3.860;2022-09-09T09:14:41;12.95;;;2.20;;
30605;SDS011;17371;51.328;3.860;2022-09-09T09:17:11;7.88;;;2.10;;
30605;SDS011;17371;51.328;3.860;2022-09-09T09:19:38;7.68;;;2.00;;
30605;SDS011;17371;51.328;3.860;2022-09-09T09:22:06;10.30;;;1.97;;
30605;SDS011;17371;51.328;3.860;2022-09-09T09:24:40;9.00;;;2.05;;
30605;SDS011;17371;51.328;3.860;2022-09-09T09:27:12;8.93;;;2.28;;
30605;SDS011;17371;51.328;3.860;2022-09-09T09:29:38;5.13;;;1.83;;
30605;SDS011;17371;51.328;3.860;2022-09-09T09:32:04;6.30;;;1.90;;
30605;SDS011;17371;51.328;3.860;2022-09-09T09:34:32;8.90;;;1.90;;
30605;SDS011;17371;51.328;3.860;2022-09-09T09:36:57;8.43;;;2.00;;
30605;SDS011;17371;51.328;3.860;2022-09-09T09:39:24;9.70;;;2.35;;
30605;SDS011;17371;51.328;3.860;2022-09-09T09:41:51;10.07;;;2.10;;
30605;SDS011;17371;51.328;3.860;2022-09-09T09:44:22;8.03;;;2.00;;
30605;SDS011;17371;51.328;3.860;2022-09-09T09:46:49;8.13;;;2.10;;
30605;SDS011;17371;51.328;3.860;2022-09-09T09:49:14;7.47;;;2.03;;
30605;SDS011;17371;51.328;3.860;2022-09-09T09:51:41;6.17;;;2.07;;
30605;SDS011;17371;51.328;3.860;2022-09-09T09:54:14;6.47;;;2.08;;
30605;SDS011;17371;51.328;3.860;2022-09-09T09:56:44;8.35;;;2.00;;
30605;SDS011;17371;51.328;3.860;2022-09-09T09:59:19;11.90;;;2.38;;
30605;SDS011;17371;51.328;3.860;2022-09-09T10:01:45;9.38;;;2.10;;
30605;SDS011;17371;51.328;3.860;2022-09-09T10:04:14;6.68;;;2.17;;
30605;SDS011;17371;51.328;3.860;2022-09-09T10:06:42;10.93;;;2.03;;
30605;SDS011;17371;51.328;3.860;2022-09-09T10:09:18;12.27;;;2.25;;
30605;SDS011;17371;51.328;3.860;2022-09-09T10:11:48;6.32;;;1.90;;
30605;SDS011;17371;51.328;3.860;2022-09-09T10:14:19;7.07;;;1.77;;
30605;SDS011;17371;51.328;3.860;2022-09-09T10:16:49;7.10;;;2.22;;
30605;SDS011;17371;51.328;3.860;2022-09-09T10:19:25;7.57;;;1.90;;
30605;SDS011;17371;51.328;3.860;2022-09-09T10:27:47;8.38;;;2.20;;
30605;SDS011;17371;51.328;3.860;2022-09-09T10:30:22;5.78;;;1.83;;
30605;SDS011;17371;51.328;3.860;2022-09-09T10:32:49;9.52;;;2.20;;
30605;SDS011;17371;51.328;3.860;2022-09-09T10:35:19;8.57;;;2.40;;
30605;SDS011;17371;51.328;3.860;2022-09-09T10:37:58;5.43;;;1.92;;
30605;SDS011;17371;51.328;3.860;2022-09-09T10:40:31;4.10;;;1.60;;
30605;SDS011;17371;51.328;3.860;2022-09-09T10:43:00;7.80;;;2.25;;
30605;SDS011;17371;51.328;3.860;2022-09-09T10:45:30;10.48;;;2.15;;
30605;SDS011;17371;51.328;3.860;2022-09-09T10:48:01;5.43;;;1.95;;
30605;SDS011;17371;51.328;3.860;2022-09-09T10:50:39;11.80;;;1.92;;
30605;SDS011;17371;51.328;3.860;2022-09-09T10:53:11;5.95;;;1.60;;
30605;SDS011;17371;51.328;3.860;2022-09-09T10:55:40;8.00;;;2.05;;
30605;SDS011;17371;51.328;3.860;2022-09-09T10:58:09;6.45;;;1.70;;
30605;SDS011;17371;51.328;3.860;2022-09-09T11:00:38;7.93;;;1.98;;
30605;SDS011;17371;51.328;3.860;2022-09-09T11:03:05;6.15;;;1.88;;
30605;SDS011;17371;51.328;3.860;2022-09-09T11:05:33;6.20;;;1.60;;
30605;SDS011;17371;51.328;3.860;2022-09-09T11:08:03;6.95;;;2.03;;
30605;SDS011;17371;51.328;3.860;2022-09-09T11:10:35;6.70;;;1.83;;
30605;SDS011;17371;51.328;3.860;2022-09-09T11:13:04;6.88;;;2.10;;
30605;SDS011;17371;51.328;3.860;2022-09-09T11:15:48;7.65;;;2.00;;
30605;SDS011;17371;51.328;3.860;2022-09-09T11:18:16;6.93;;;1.77;;
30605;SDS011;17371;51.328;3.860;2022-09-09T11:20:44;8.02;;;1.65;;
30605;SDS011;17371;51.328;3.860;2022-09-09T11:23:11;6.05;;;1.92;;
30605;SDS011;17371;51.328;3.860;2022-09-09T11:25:40;9.65;;;1.88;;
30605;SDS011;17371;51.328;3.860;2022-09-09T11:28:15;4.32;;;1.48;;
30605;SDS011;17371;51.328;3.860;2022-09-09T11:30:51;6.88;;;1.63;;
30605;SDS011;17371;51.328;3.860;2022-09-09T11:33:26;5.88;;;1.80;;
30605;SDS011;17371;51.328;3.860;2022-09-09T11:36:06;4.72;;;1.65;;
30605;SDS011;17371;51.328;3.860;2022-09-09T11:38:44;6.70;;;1.55;;
30605;SDS011;17371;51.328;3.860;2022-09-09T11:41:12;4.88;;;1.90;;
30605;SDS011;17371;51.328;3.860;2022-09-09T11:43:39;5.90;;;1.63;;
30605;SDS011;17371;51.328;3.860;2022-09-09T11:46:05;6.35;;;1.92;;
30605;SDS011;17371;51.328;3.860;2022-09-09T11:48:32;4.63;;;1.70;;
30605;SDS011;17371;51.328;3.860;2022-09-09T11:50:59;4.82;;;1.80;;
30605;SDS011;17371;51.328;3.860;2022-09-09T11:53:26;4.50;;;1.90;;
30605;SDS011;17371;51.328;3.860;2022-09-09T11:56:01;3.40;;;1.90;;
30605;SDS011;17371;51.328;3.860;2022-09-09T11:58:30;10.20;;;2.08;;
30605;SDS011;17371;51.328;3.860;2022-09-09T12:01:01;7.28;;;2.10;;
30605;SDS011;17371;51.328;3.860;2022-09-09T12:03:40;4.82;;;1.90;;
30605;SDS011;17371;51.328;3.860;2022-09-09T12:06:15;5.20;;;1.95;;
30605;SDS011;17371;51.328;3.860;2022-09-09T12:08:43;5.63;;;1.95;;
30605;SDS011;17371;51.328;3.860;2022-09-09T12:11:11;6.18;;;2.22;;
30605;SDS011;17371;51.328;3.860;2022-09-09T12:13:38;6.70;;;2.03;;
30605;SDS011;17371;51.328;3.860;2022-09-09T12:16:03;5.15;;;2.10;;
30605;SDS011;17371;51.328;3.860;2022-09-09T12:18:31;9.53;;;2.23;;
30605;SDS011;17371;51.328;3.860;2022-09-09T12:21:01;5.53;;;2.00;;
30605;SDS011;17371;51.328;3.860;2022-09-09T12:23:32;7.45;;;2.45;;
30605;SDS011;17371;51.328;3.860;2022-09-09T12:28:57;6.53;;;2.70;;
30605;SDS011;17371;51.328;3.860;2022-09-09T12:31:28;7.32;;;2.80;;
30605;SDS011;17371;51.328;3.860;2022-09-09T12:34:02;8.75;;;2.95;;
30605;SDS011;17371;51.328;3.860;2022-09-09T12:36:31;8.10;;;3.00;;
30605;SDS011;17371;51.328;3.860;2022-09-09T12:38:58;9.27;;;3.30;;
30605;SDS011;17371;51.328;3.860;2022-09-09T12:41:25;6.67;;;2.80;;
30605;SDS011;17371;51.328;3.860;2022-09-09T12:43:51;8.82;;;3.40;;
30605;SDS011;17371;51.328;3.860;2022-09-09T12:46:22;12.60;;;3.50;;
30605;SDS011;17371;51.328;3.860;2022-09-09T12:48:52;8.83;;;3.40;;
30605;SDS011;17371;51.328;3.860;2022-09-09T12:51:19;7.97;;;3.40;;
30605;SDS011;17371;51.328;3.860;2022-09-09T12:53:48;8.23;;;3.45;;
30605;SDS011;17371;51.328;3.860;2022-09-09T12:56:18;7.20;;;3.37;;
30605;SDS011;17371;51.328;3.860;2022-09-09T12:58:45;7.68;;;3.40;;
30605;SDS011;17371;51.328;3.860;2022-09-09T13:01:17;8.70;;;3.50;;
30605;SDS011;17371;51.328;3.860;2022-09-09T13:03:46;7.65;;;3.00;;
30605;SDS011;17371;51.328;3.860;2022-09-09T13:06:12;6.35;;;3.10;;
30605;SDS011;17371;51.328;3.860;2022-09-09T13:08:38;5.78;;;2.38;;
30605;SDS011;17371;51.328;3.860;2022-09-09T13:11:04;5.75;;;2.22;;
30605;SDS011;17371;51.328;3.860;2022-09-09T13:13:34;3.28;;;1.90;;
30605;SDS011;17371;51.328;3.860;2022-09-09T13:16:00;5.80;;;1.90;;
30605;SDS011;17371;51.328;3.860;2022-09-09T13:18:29;6.38;;;2.00;;
30605;SDS011;17371;51.328;3.860;2022-09-09T13:20:56;6.05;;;2.10;;
30605;SDS011;17371;51.328;3.860;2022-09-09T13:23:21;7.35;;;2.17;;
30605;SDS011;17371;51.328;3.860;2022-09-09T13:25:55;6.72;;;2.08;;
30605;SDS011;17371;51.328;3.860;2022-09-09T13:28:22;8.57;;;2.47;;
30605;SDS011;17371;51.328;3.860;2022-09-09T13:30:55;10.63;;;2.28;;
30605;SDS011;17371;51.328;3.860;2022-09-09T13:33:21;8.82;;;2.40;;
30605;SDS011;17371;51.328;3.860;2022-09-09T13:35:50;9.32;;;2.38;;
30605;SDS011;17371;51.328;3.860;2022-09-09T13:38:17;6.90;;;2.53;;
30605;SDS011;17371;51.328;3.860;2022-09-09T13:40:51;8.00;;;2.90;;
30605;SDS011;17371;51.328;3.860;2022-09-09T13:43:18;9.05;;;3.03;;
30605;SDS011;17371;51.328;3.860;2022-09-09T13:45:52;12.50;;;3.25;;
30605;SDS011;17371;51.328;3.860;2022-09-09T13:48:18;8.13;;;2.92;;
30605;SDS011;17371;51.328;3.860;2022-09-09T13:50:44;5.90;;;2.90;;
30605;SDS011;17371;51.328;3.860;2022-09-09T13:53:20;7.32;;;3.00;;
30605;SDS011;17371;51.328;3.860;2022-09-09T13:55:45;6.85;;;3.20;;
30605;SDS011;17371;51.328;3.860;2022-09-09T13:58:14;7.63;;;3.40;;
30605;SDS011;17371;51.328;3.860;2022-09-09T14:00:40;7.45;;;3.75;;
30605;SDS011;17371;51.328;3.860;2022-09-09T14:03:06;8.80;;;3.30;;
30605;SDS011;17371;51.328;3.860;2022-09-09T14:05:31;5.43;;;2.93;;
30605;SDS011;17371;51.328;3.860;2022-09-09T14:07:59;7.78;;;3.00;;
30605;SDS011;17371;51.328;3.860;2022-09-09T14:10:25;5.15;;;2.50;;
30605;SDS011;17371;51.328;3.860;2022-09-09T14:12:50;7.83;;;2.40;;
30605;SDS011;17371;51.328;3.860;2022-09-09T14:15:15;5.20;;;2.37;;
30605;SDS011;17371;51.328;3.860;2022-09-09T14:17:41;4.63;;;2.90;;
30605;SDS011;17371;51.328;3.860;2022-09-09T14:20:07;4.15;;;2.70;;
30605;SDS011;17371;51.328;3.860;2022-09-09T14:22:33;4.72;;;2.65;;
30605;SDS011;17371;51.328;3.860;2022-09-09T14:25:01;6.33;;;2.80;;
30605;SDS011;17371;51.328;3.860;2022-09-09T14:27:27;7.80;;;3.00;;
30605;SDS011;17371;51.328;3.860;2022-09-09T14:29:52;8.00;;;2.73;;
30605;SDS011;17371;51.328;3.860;2022-09-09T14:32:18;5.90;;;2.80;;
30605;SDS011;17371;51.328;3.860;2022-09-09T14:34:43;6.93;;;2.30;;
30605;SDS011;17371;51.328;3.860;2022-09-09T14:37:09;7.00;;;3.07;;
30605;SDS011;17371;51.328;3.860;2022-09-09T14:39:34;6.13;;;3.23;;
30605;SDS011;17371;51.328;3.860;2022-09-09T14:42:01;5.35;;;3.25;;
30605;SDS011;17371;51.328;3.860;2022-09-09T14:44:26;7.03;;;3.08;;
30605;SDS011;17371;51.328;3.860;2022-09-09T14:46:51;9.90;;;3.30;;
30605;SDS011;17371;51.328;3.860;2022-09-09T14:49:17;4.33;;;2.90;;
30605;SDS011;17371;51.328;3.860;2022-09-09T14:51:42;7.77;;;3.30;;
30605;SDS011;17371;51.328;3.860;2022-09-09T14:54:08;7.33;;;3.73;;